Time;durP1;ratioP1;P1;durP2;ratioP2;P2;SDS_P1;SDS_P2;PMS_P1;PMS_P2;Temp;Humidity;BMP_temperature;BMP_pressure;BME280_temperature;BME280_humidity;BME280_pressure;Samples;Min_cycle;Max_cycle;Signal;HPM_P1;HPM_P2
2023/05/08 00:00:15;;;;;;;10.03;7.40;;;;;;;16.78;100.00;98454.31;4168408;28;20650;-82
2023/05/08 00:02:18;;;;;;;7.43;6.30;;;;;;;16.76;100.00;98451.81;4167314;28;20655;-81
2023/05/08 00:04:21;;;;;;;7.40;6.67;;;;;;;16.76;100.00;98453.63;4169400;28;20732;-82
2023/05/08 00:06:25;;;;;;;7.87;6.73;;;;;;;16.75;100.00;98450.16;4167640;28;20675;-82
2023/05/08 00:08:28;;;;;;;8.27;6.97;;;;;;;16.76;100.00;98456.25;4171823;28;20997;-82
2023/05/08 00:10:32;;;;;;;7.27;6.57;;;;;;;16.75;100.00;98454.63;4171428;28;21333;-82
2023/05/08 00:12:35;;;;;;;9.17;6.97;;;;;;;16.74;100.00;98451.13;4151567;28;20660;-82
2023/05/08 00:14:38;;;;;;;6.60;5.93;;;;;;;16.75;100.00;98455.44;4171643;28;21036;-81
2023/05/08 00:16:42;;;;;;;7.23;6.33;;;;;;;16.76;100.00;98451.00;4164023;28;21253;-82
2023/05/08 00:18:46;;;;;;;7.23;6.53;;;;;;;16.74;100.00;98456.41;4157981;28;20634;-82
2023/05/08 00:20:49;;;;;;;7.40;6.70;;;;;;;16.73;100.00;98451.25;4154457;28;20642;-81
2023/05/08 00:22:52;;;;;;;11.20;7.50;;;;;;;16.70;100.00;98452.38;4171618;28;20654;-82
2023/05/08 00:24:55;;;;;;;9.00;8.20;;;;;;;16.70;100.00;98457.66;4171313;28;20724;-82
2023/05/08 00:26:58;;;;;;;8.87;7.97;;;;;;;16.71;100.00;98456.66;4172825;28;20631;-82
2023/05/08 00:29:01;;;;;;;9.20;8.30;;;;;;;16.73;100.00;98462.66;4155823;28;20967;-81
2023/05/08 00:31:08;;;;;;;8.60;7.80;;;;;;;16.72;100.00;98458.34;4177778;28;20736;-82
2023/05/08 00:33:12;;;;;;;8.87;8.07;;;;;;;16.71;100.00;98456.66;4173086;28;20727;-82
2023/05/08 00:35:15;;;;;;;8.90;8.10;;;;;;;16.72;100.00;98463.59;4167518;28;20625;-82
2023/05/08 00:37:18;;;;;;;8.23;7.50;;;;;;;16.71;100.00;98461.94;4156105;28;21449;-82
2023/05/08 00:39:21;;;;;;;9.10;7.50;;;;;;;16.71;100.00;98469.00;4168066;28;20630;-82
2023/05/08 00:41:25;;;;;;;8.70;7.83;;;;;;;16.70;100.00;98467.31;4172301;28;20675;-82
2023/05/08 00:43:28;;;;;;;9.27;8.43;;;;;;;16.70;100.00;98462.06;4152995;28;20642;-82
2023/05/08 00:45:38;;;;;;;10.70;8.40;;;;;;;16.70;100.00;98460.28;4153560;28;20658;-82
2023/05/08 00:47:41;;;;;;;10.50;9.47;;;;;;;16.69;100.00;98460.41;4173862;28;20725;-81
2023/05/08 00:49:45;;;;;;;10.20;9.13;;;;;;;16.65;100.00;98464.25;4166938;28;20641;-82
2023/05/08 00:51:51;;;;;;;9.57;8.60;;;;;;;16.62;100.00;98460.09;4171431;28;21236;-82
2023/05/08 00:53:54;;;;;;;9.63;8.60;;;;;;;16.61;100.00;98463.72;4172241;28;20677;-81
2023/05/08 00:55:57;;;;;;;10.00;9.00;;;;;;;16.60;100.00;98462.03;4166644;28;20640;-81
2023/05/08 00:58:00;;;;;;;10.13;9.13;;;;;;;16.60;100.00;98462.03;4156657;28;20726;-81
2023/05/08 01:00:05;;;;;;;9.77;8.77;;;;;;;16.61;100.00;98466.34;4171686;28;20634;-81
2023/05/08 01:02:08;;;;;;;12.83;8.53;;;;;;;16.61;100.00;98463.72;4151929;28;20683;-82
2023/05/08 01:04:11;;;;;;;9.47;8.00;;;;;;;16.59;100.00;98468.25;4158889;28;20637;-81
2023/05/08 01:06:16;;;;;;;9.57;8.73;;;;;;;16.60;100.00;98464.66;4174376;28;20691;-82
2023/05/08 01:08:19;;;;;;;8.53;7.73;;;;;;;16.60;100.00;98462.03;4168620;28;20640;-82
2023/05/08 01:10:23;;;;;;;9.07;7.97;;;;;;;16.61;100.00;98470.75;4170170;28;20645;-82
2023/05/08 01:12:30;;;;;;;8.90;8.10;;;;;;;16.62;100.00;98470.63;4172233;28;20823;-81
2023/05/08 01:14:42;;;;;;;9.67;8.77;;;;;;;16.61;100.00;98471.63;4172192;28;20629;-82
2023/05/08 01:16:48;;;;;;;8.67;7.70;;;;;;;16.61;100.00;98473.38;4169019;28;20642;-82
2023/05/08 01:19:02;;;;;;;10.20;9.20;;;;;;;16.60;100.00;98475.19;4169606;28;20742;-81
2023/05/08 01:21:12;;;;;;;9.30;8.43;;;;;;;16.59;100.00;98473.53;4168170;28;20627;-81
2023/05/08 01:23:49;;;;;;;8.70;7.90;;;;;;;16.57;100.00;98466.75;4160563;28;20733;-82
2023/05/08 01:26:29;;;;;;;9.10;8.30;;;;;;;16.56;100.00;98473.78;4154720;28;20659;-81
2023/05/08 01:28:52;;;;;;;8.57;7.67;;;;;;;16.55;100.00;98466.88;4142409;28;20658;-81
2023/05/08 01:31:08;;;;;;;9.53;8.47;;;;;;;16.53;100.00;98466.16;4145300;28;20631;-82
2023/05/08 01:33:18;;;;;;;9.03;8.13;;;;;;;16.53;100.00;98470.59;4152472;28;20688;-82
2023/05/08 01:35:26;;;;;;;9.37;8.47;;;;;;;16.54;100.00;98473.09;4167716;28;20676;-82
2023/05/08 01:37:34;;;;;;;9.70;8.80;;;;;;;16.54;100.00;98475.72;4158759;28;20636;-82
2023/05/08 01:39:44;;;;;;;10.43;9.10;;;;;;;16.55;100.00;98473.91;4168834;28;20633;-82
2023/05/08 01:42:00;;;;;;;9.23;8.23;;;;;;;16.54;100.00;98478.34;4169324;28;20649;-82
2023/05/08 01:44:12;;;;;;;10.10;8.90;;;;;;;16.54;100.00;98472.28;4168693;28;20622;-82
2023/05/08 01:46:19;;;;;;;10.60;9.50;;;;;;;16.53;100.00;98481.94;4155503;28;21105;-81
2023/05/08 01:48:28;;;;;;;10.60;9.60;;;;;;;16.52;100.00;98480.31;4165075;28;20641;-82
2023/05/08 01:50:35;;;;;;;11.10;10.00;;;;;;;16.54;100.00;98490.72;4154972;28;20626;-82
2023/05/08 01:52:49;;;;;;;11.00;9.67;;;;;;;16.54;100.00;98490.72;4156061;28;20630;-81
2023/05/08 01:54:57;;;;;;;11.03;9.97;;;;;;;16.52;100.00;98489.97;4151656;28;20635;-82
2023/05/08 01:57:01;;;;;;;10.40;9.40;;;;;;;16.51;100.00;98494.41;4169402;28;20621;-82
2023/05/08 01:59:05;;;;;;;10.77;9.77;;;;;;;16.52;100.00;98496.09;4165243;28;21221;-82
2023/05/08 02:01:08;;;;;;;11.03;10.03;;;;;;;16.51;100.00;98498.88;4167909;28;21425;-82
2023/05/08 02:03:13;;;;;;;9.87;8.87;;;;;;;16.51;100.00;98507.59;4168760;28;20668;-82
2023/05/08 02:05:19;;;;;;;11.13;9.83;;;;;;;16.51;100.00;98510.22;4180906;28;20798;-82
2023/05/08 02:07:23;;;;;;;10.20;9.20;;;;;;;16.52;100.00;98504.00;4168272;28;20641;-82
2023/05/08 02:09:27;;;;;;;10.80;9.80;;;;;;;16.52;100.00;98504.00;4155525;28;20661;-81
2023/05/08 02:11:32;;;;;;;11.23;10.13;;;;;;;16.52;100.00;98503.16;4171869;28;20700;-82
2023/05/08 02:13:35;;;;;;;10.43;9.40;;;;;;;16.50;100.00;98500.66;4169858;28;21229;-82
2023/05/08 02:15:39;;;;;;;11.63;9.90;;;;;;;16.52;100.00;98511.91;4164601;28;21023;-82
2023/05/08 02:17:43;;;;;;;10.33;9.33;;;;;;;16.50;100.00;98498.00;4157071;28;20640;-82
2023/05/08 02:19:47;;;;;;;11.37;10.10;;;;;;;16.50;100.00;98511.19;4166345;28;21070;-82
2023/05/08 02:21:52;;;;;;;10.27;9.27;;;;;;;16.50;100.00;98513.81;4162277;28;21068;-81
2023/05/08 02:23:56;;;;;;;12.23;10.10;;;;;;;16.50;100.00;98508.53;4164998;28;20686;-81
2023/05/08 02:26:00;;;;;;;10.43;9.17;;;;;;;16.51;100.00;98509.41;4165172;28;20666;-82
2023/05/08 02:28:04;;;;;;;10.27;9.30;;;;;;;16.51;100.00;98504.97;4169850;28;20697;-81
2023/05/08 02:30:09;;;;;;;12.50;10.80;;;;;;;16.51;100.00;98510.22;4164108;28;20635;-81
2023/05/08 02:32:14;;;;;;;10.73;9.33;;;;;;;16.52;100.00;98505.78;4169577;28;20658;-81
2023/05/08 02:34:18;;;;;;;10.07;8.83;;;;;;;16.52;100.00;98514.53;4170889;28;20631;-81
2023/05/08 02:36:22;;;;;;;10.60;9.50;;;;;;;16.52;100.00;98511.91;4166392;28;20757;-82
2023/05/08 02:38:27;;;;;;;11.30;10.20;;;;;;;16.52;100.00;98511.91;4163321;28;20650;-82
2023/05/08 02:40:31;;;;;;;11.43;10.23;;;;;;;16.51;100.00;98515.50;4161215;28;20628;-81
2023/05/08 02:42:34;;;;;;;11.13;10.13;;;;;;;16.50;100.00;98516.44;4141816;28;20638;-81
2023/05/08 02:44:38;;;;;;;11.30;10.20;;;;;;;16.50;100.00;98513.81;4153689;28;21029;-81
2023/05/08 02:46:46;;;;;;;11.07;9.90;;;;;;;16.51;100.00;98520.75;4146426;28;21331;-81
2023/05/08 02:48:56;;;;;;;11.20;10.10;;;;;;;16.51;100.00;98514.66;4165698;28;20712;-82
2023/05/08 02:51:05;;;;;;;11.80;10.60;;;;;;;16.50;100.00;98508.53;4163327;28;20629;-82
2023/05/08 02:53:11;;;;;;;11.70;10.50;;;;;;;16.50;100.00;98520.06;4182681;28;20625;-82
2023/05/08 02:55:26;;;;;;;10.70;9.70;;;;;;;16.49;100.00;98516.56;4151642;28;21220;-82
2023/05/08 02:57:36;;;;;;;11.03;10.03;;;;;;;16.50;100.00;98521.72;4163100;28;20636;-81
2023/05/08 02:59:44;;;;;;;10.83;9.83;;;;;;;16.51;100.00;98522.56;4170225;28;20725;-82
2023/05/08 03:01:52;;;;;;;10.87;8.77;;;;;;;16.50;100.00;98518.25;4168467;28;20633;-82
2023/05/08 03:04:00;;;;;;;12.97;10.47;;;;;;;16.50;100.00;98519.09;4168053;28;20698;-82
2023/05/08 03:06:10;;;;;;;10.93;9.83;;;;;;;16.49;100.00;98513.94;4168734;28;20755;-82
2023/05/08 03:08:15;;;;;;;10.60;9.63;;;;;;;16.47;100.00;98512.44;4153389;28;20737;-82
2023/05/08 03:10:22;;;;;;;10.33;9.43;;;;;;;16.48;100.00;98508.81;4167415;28;20672;-82
2023/05/08 03:12:28;;;;;;;10.90;9.90;;;;;;;16.47;100.00;98507.16;4162666;28;21512;-82
2023/05/08 03:14:32;;;;;;;11.13;10.07;;;;;;;16.46;100.00;98506.31;4148133;28;20640;-82
2023/05/08 03:16:38;;;;;;;10.70;9.43;;;;;;;16.45;100.00;98503.81;4167870;28;20640;-82
2023/05/08 03:18:43;;;;;;;10.67;9.57;;;;;;;16.44;100.00;98499.53;4169302;28;20763;-82
2023/05/08 03:20:51;;;;;;;10.70;9.60;;;;;;;16.42;100.00;98501.44;4167967;28;20643;-82
2023/05/08 03:22:55;;;;;;;10.77;9.87;;;;;;;16.41;100.00;98497.16;4165143;28;20609;-82
2023/05/08 03:25:00;;;;;;;11.33;10.13;;;;;;;16.40;100.00;98504.19;4165624;28;20669;-82
2023/05/08 03:27:04;;;;;;;13.00;10.23;;;;;;;16.41;100.00;98512.94;4168006;28;20624;-82
2023/05/08 03:29:08;;;;;;;10.70;9.60;;;;;;;16.42;100.00;98504.06;4162810;28;20737;-82
2023/05/08 03:31:11;;;;;;;10.80;9.80;;;;;;;16.37;100.00;98507.09;4167098;28;20746;-82
2023/05/08 03:33:15;;;;;;;10.77;9.77;;;;;;;16.37;100.00;98501.81;4176282;28;20680;-82
2023/05/08 03:35:18;;;;;;;10.37;9.47;;;;;;;16.37;100.00;98512.34;4171314;28;20640;-82
2023/05/08 03:37:21;;;;;;;10.30;9.23;;;;;;;16.37;100.00;98506.25;4171108;28;20641;-82
2023/05/08 03:39:25;;;;;;;9.73;8.73;;;;;;;16.39;100.00;98510.44;4169288;28;20719;-82
2023/05/08 03:41:28;;;;;;;9.20;8.33;;;;;;;16.40;100.00;98511.25;4167147;28;20785;-81
2023/05/08 03:43:33;;;;;;;9.00;8.10;;;;;;;16.40;100.00;98509.47;4151645;28;20716;-82
2023/05/08 03:45:37;;;;;;;12.37;10.00;;;;;;;16.41;100.00;98502.41;4168580;28;20656;-82
2023/05/08 03:47:41;;;;;;;10.23;9.00;;;;;;;16.39;100.00;98510.44;4170444;28;21223;-82
2023/05/08 03:49:47;;;;;;;10.60;9.60;;;;;;;16.38;100.00;98511.41;4157985;28;20665;-82
2023/05/08 03:51:53;;;;;;;11.97;10.63;;;;;;;16.35;100.00;98508.19;4168622;28;20636;-82
2023/05/08 03:53:56;;;;;;;11.57;10.57;;;;;;;16.34;100.00;98507.38;4154790;28;20617;-81
2023/05/08 03:56:00;;;;;;;10.50;9.40;;;;;;;16.34;100.00;98517.03;4155036;28;20675;-82
2023/05/08 03:58:10;;;;;;;11.60;10.50;;;;;;;16.34;100.00;98509.16;4157728;28;20634;-82
2023/05/08 04:00:22;;;;;;;11.43;10.43;;;;;;;16.33;100.00;98512.78;4171284;28;20735;-82
2023/05/08 04:02:29;;;;;;;12.50;11.20;;;;;;;16.32;100.00;98513.72;4171627;28;21196;-82
2023/05/08 04:04:38;;;;;;;11.30;10.10;;;;;;;16.30;100.00;98510.41;4157929;28;21083;-82
2023/05/08 04:06:46;;;;;;;12.30;10.90;;;;;;;16.31;100.00;98515.53;4153214;28;20638;-82
2023/05/08 04:09:04;;;;;;;12.47;11.20;;;;;;;16.33;100.00;98518.03;4149104;28;21039;-82
2023/05/08 04:11:16;;;;;;;12.40;11.20;;;;;;;16.34;100.00;98515.28;4166598;28;20633;-82
2023/05/08 04:13:24;;;;;;;12.30;11.00;;;;;;;16.34;100.00;98520.53;4156062;28;21170;-82
2023/05/08 04:15:30;;;;;;;11.27;9.93;;;;;;;16.34;100.00;98517.03;4166757;28;20628;-82
2023/05/08 04:17:37;;;;;;;11.23;10.03;;;;;;;16.36;100.00;98528.31;4168190;28;20672;-82
2023/05/08 04:19:46;;;;;;;12.17;10.97;;;;;;;16.33;100.00;98520.66;4162225;28;21106;-82
2023/05/08 04:21:54;;;;;;;11.13;10.07;;;;;;;16.37;100.00;98535.22;4149129;28;20690;-82
2023/05/08 04:23:58;;;;;;;13.53;11.80;;;;;;;16.37;100.00;98533.41;4151730;28;21221;-82
2023/05/08 04:26:04;;;;;;;11.93;10.70;;;;;;;16.37;100.00;98536.03;4151804;28;21045;-82
2023/05/08 04:28:08;;;;;;;11.47;10.13;;;;;;;16.38;100.00;98532.47;4170111;28;20649;-81
2023/05/08 04:30:13;;;;;;;12.37;11.10;;;;;;;16.38;100.00;98536.91;4169476;28;20731;-81
2023/05/08 04:32:18;;;;;;;13.60;10.67;;;;;;;16.39;100.00;98542.03;4149650;28;21224;-81
2023/05/08 04:34:21;;;;;;;13.10;11.80;;;;;;;16.38;100.00;98534.25;4187767;28;21062;-81
2023/05/08 04:36:28;;;;;;;12.10;11.00;;;;;;;16.41;100.00;98537.47;4167618;28;20641;-81
2023/05/08 04:38:31;;;;;;;11.80;10.70;;;;;;;16.41;100.00;98547.19;4167285;28;20648;-81
2023/05/08 04:40:34;;;;;;;11.90;10.70;;;;;;;16.43;100.00;98542.59;4169462;28;20634;-81
2023/05/08 04:42:41;;;;;;;13.93;12.10;;;;;;;16.42;100.00;98544.41;4165494;28;20644;-81
2023/05/08 04:44:46;;;;;;;13.33;11.23;;;;;;;16.44;100.00;98549.56;4169037;28;21219;-82
2023/05/08 04:46:49;;;;;;;13.27;11.40;;;;;;;16.43;100.00;98545.25;4147779;28;20649;-86
2023/05/08 04:48:54;;;;;;;12.30;11.10;;;;;;;16.43;100.00;98548.69;4168455;28;20664;-85
2023/05/08 04:50:57;;;;;;;12.20;11.00;;;;;;;16.43;100.00;98559.22;4166068;28;20631;-83
2023/05/08 04:53:01;;;;;;;14.50;11.10;;;;;;;16.46;100.00;98558.16;4170199;28;20652;-83
2023/05/08 04:55:04;;;;;;;11.77;10.67;;;;;;;16.46;100.00;98561.59;4155287;28;21887;-83
2023/05/08 04:57:10;;;;;;;12.13;10.97;;;;;;;16.46;100.00;98556.34;4166998;28;20689;-83
2023/05/08 04:59:13;;;;;;;11.77;10.57;;;;;;;16.51;100.00;98562.06;4167952;28;21208;-83
2023/05/08 05:01:18;;;;;;;11.87;10.67;;;;;;;16.49;100.00;98566.63;4167773;28;21268;-83
2023/05/08 05:03:22;;;;;;;13.00;10.57;;;;;;;16.50;100.00;98565.66;4163658;28;21038;-83
2023/05/08 05:05:26;;;;;;;12.37;11.17;;;;;;;16.51;100.00;98568.16;4155245;28;20693;-83
2023/05/08 05:07:30;;;;;;;11.50;10.40;;;;;;;16.52;100.00;98575.13;4168058;28;20729;-84
2023/05/08 05:09:35;;;;;;;13.37;11.30;;;;;;;16.51;100.00;98573.44;4151125;28;20634;-84
2023/05/08 05:11:39;;;;;;;12.47;11.27;;;;;;;16.51;100.00;98570.78;4182190;28;21232;-83
2023/05/08 05:13:42;;;;;;;12.50;11.20;;;;;;;16.53;100.00;98576.75;4161518;28;20625;-83
2023/05/08 05:15:46;;;;;;;12.50;11.33;;;;;;;16.54;100.00;98577.63;4170586;28;21221;-83
2023/05/08 05:17:50;;;;;;;12.87;11.67;;;;;;;16.56;100.00;98579.13;4168165;28;20633;-83
2023/05/08 05:19:54;;;;;;;13.60;12.20;;;;;;;16.59;100.00;98580.69;4170852;28;20633;-83
2023/05/08 05:22:01;;;;;;;13.90;12.60;;;;;;;16.61;100.00;98578.75;4170681;28;20648;-83
2023/05/08 05:24:06;;;;;;;13.20;11.50;;;;;;;16.62;100.00;98583.06;4151632;28;20641;-83
2023/05/08 05:26:09;;;;;;;12.53;11.43;;;;;;;16.61;100.00;98579.59;4167023;28;21355;-83
2023/05/08 05:28:12;;;;;;;15.30;12.10;;;;;;;16.61;100.00;98587.50;4161930;28;21352;-83
2023/05/08 05:30:16;;;;;;;12.77;11.47;;;;;;;16.63;100.00;98580.31;4158014;28;20625;-83
2023/05/08 05:32:19;;;;;;;12.63;11.30;;;;;;;16.64;100.00;98587.25;4146931;28;20782;-83
2023/05/08 05:34:22;;;;;;;12.73;11.43;;;;;;;16.63;100.00;98587.38;4164782;28;20639;-83
2023/05/08 05:36:26;;;;;;;13.30;11.90;;;;;;;16.66;100.00;98584.47;4169736;28;21355;-83
2023/05/08 05:38:30;;;;;;;13.43;12.03;;;;;;;16.69;100.00;98590.31;4169025;28;20646;-83
2023/05/08 05:40:33;;;;;;;12.43;11.23;;;;;;;16.71;100.00;98585.75;4157664;28;20620;-83
2023/05/08 05:42:36;;;;;;;13.87;12.47;;;;;;;16.75;100.00;98597.69;4153728;28;20638;-84
2023/05/08 05:44:40;;;;;;;12.37;11.17;;;;;;;16.78;100.00;98591.31;4169183;28;22609;-83
2023/05/08 05:46:43;;;;;;;13.47;12.13;;;;;;;16.81;100.00;98597.19;4167894;28;20642;-83
2023/05/08 05:48:47;;;;;;;12.40;11.20;;;;;;;16.82;100.00;98588.28;4151413;28;20642;-83
2023/05/08 05:50:50;;;;;;;14.10;11.10;;;;;;;16.85;100.00;98589.84;4147796;28;20645;-83
2023/05/08 05:52:53;;;;;;;14.17;12.67;;;;;;;16.85;100.00;98585.41;4151784;28;20732;-84
2023/05/08 05:54:58;;;;;;;13.43;12.03;;;;;;;16.88;100.00;98593.03;4162896;28;20650;-83
2023/05/08 05:57:01;;;;;;;13.60;12.00;;;;;;;16.89;100.00;98592.09;4167284;28;20999;-84
2023/05/08 05:59:05;;;;;;;13.37;11.97;;;;;;;16.91;100.00;98594.59;4170305;28;20629;-83
2023/05/08 06:01:08;;;;;;;13.73;12.27;;;;;;;16.92;100.00;98598.91;4168537;28;20619;-84
2023/05/08 06:03:11;;;;;;;13.30;12.00;;;;;;;16.91;100.00;98592.78;4166104;28;20626;-84
2023/05/08 06:05:15;;;;;;;13.83;12.37;;;;;;;16.94;100.00;98597.78;4171656;28;21565;-84
2023/05/08 06:07:19;;;;;;;14.90;13.50;;;;;;;16.96;100.00;98600.28;4159832;28;20644;-84
2023/05/08 06:09:23;;;;;;;14.57;12.97;;;;;;;16.97;100.00;98597.53;4161591;28;20645;-84
2023/05/08 06:11:28;;;;;;;14.00;12.60;;;;;;;17.00;100.00;98605.16;4158039;28;20681;-83
2023/05/08 06:13:31;;;;;;;13.33;12.03;;;;;;;17.02;100.00;98592.72;4164414;28;20639;-85
2023/05/08 06:15:35;;;;;;;14.20;12.77;;;;;;;17.06;100.00;98599.38;4168298;28;20746;-82
2023/05/08 06:17:38;;;;;;;13.90;12.50;;;;;;;17.09;100.00;98599.13;4155914;28;20668;-84
2023/05/08 06:19:42;;;;;;;14.30;12.80;;;;;;;17.09;100.00;98604.38;4170802;28;20789;-84
2023/05/08 06:21:45;;;;;;;14.30;13.00;;;;;;;17.10;100.00;98604.25;4171354;28;20759;-84
2023/05/08 06:23:48;;;;;;;13.90;12.50;;;;;;;17.13;100.00;98605.81;4161358;28;20645;-84
2023/05/08 06:25:51;;;;;;;16.13;14.50;;;;;;;17.15;100.00;98595.94;4155361;28;20665;-84
2023/05/08 06:27:56;;;;;;;14.60;13.20;;;;;;;17.19;100.00;98610.53;4172090;28;20735;-83
2023/05/08 06:29:59;;;;;;;13.47;12.17;;;;;;;17.22;100.00;98608.50;4172682;28;20729;-84
2023/05/08 06:32:02;;;;;;;15.07;13.27;;;;;;;17.27;100.00;98608.94;4174672;28;20629;-84
2023/05/08 06:34:05;;;;;;;15.97;14.30;;;;;;;17.31;100.00;98615.63;4173477;28;21022;-87
2023/05/08 06:36:09;;;;;;;15.50;13.87;;;;;;;17.32;100.00;98611.16;4172239;28;20722;-86
2023/05/08 06:38:12;;;;;;;17.80;16.07;;;;;;;17.28;100.00;98605.34;4171038;28;21294;-87
2023/05/08 06:40:15;;;;;;;15.30;13.77;;;;;;;17.30;100.00;98607.84;4172620;28;20642;-87
2023/05/08 06:42:21;;;;;;;16.60;14.90;;;;;;;17.32;100.00;98614.66;4165287;28;20685;-88
2023/05/08 06:44:27;;;;;;;14.43;13.07;;;;;;;17.33;100.00;98607.56;4182786;28;21038;-87
2023/05/08 06:46:30;;;;;;;17.40;15.70;;;;;;;17.36;100.00;98609.94;4165305;28;20758;-87
2023/05/08 06:48:33;;;;;;;15.20;13.70;;;;;;;17.41;100.00;98605.94;4158020;28;20628;-85
2023/05/08 06:50:38;;;;;;;14.70;13.20;;;;;;;17.46;100.00;98616.09;4168600;28;20635;-85
2023/05/08 06:52:41;;;;;;;16.30;14.70;;;;;;;17.61;100.00;98608.50;4168421;28;20626;-85
2023/05/08 06:54:44;;;;;;;21.00;15.93;;;;;;;17.57;100.00;98608.88;4180430;28;20645;-85
2023/05/08 06:56:47;;;;;;;14.97;13.47;;;;;;;17.59;100.00;98609.59;4168659;28;20733;-85
2023/05/08 06:58:51;;;;;;;15.77;14.17;;;;;;;17.64;100.00;98607.41;4153231;28;20675;-86
2023/05/08 07:01:11;;;;;;;15.07;13.57;;;;;;;17.67;100.00;98612.41;4162039;28;20623;-85
2023/05/08 07:03:15;;;;;;;14.80;13.40;;;;;;;17.73;100.00;98610.03;4165052;28;21232;-89
2023/05/08 07:05:18;;;;;;;14.80;13.30;;;;;;;17.77;100.00;98605.31;4173136;28;21095;-86
2023/05/08 07:07:22;;;;;;;15.30;13.80;;;;;;;17.84;100.00;98607.28;4169980;28;20630;-86
2023/05/08 07:09:25;;;;;;;15.53;13.90;;;;;;;17.94;100.00;98613.41;4172022;28;20642;-87
2023/05/08 07:11:28;;;;;;;16.83;15.03;;;;;;;17.99;100.00;98612.00;4159579;28;20633;-87
2023/05/08 07:13:32;;;;;;;14.70;13.27;;;;;;;18.03;100.00;98613.41;4175297;28;20629;-87
2023/05/08 07:15:35;;;;;;;15.23;13.53;;;;;;;18.02;100.00;98610.91;4156655;28;21222;-87
2023/05/08 07:17:40;;;;;;;14.43;12.20;;;;;;;17.98;100.00;98609.50;4176113;28;20656;-86
2023/05/08 07:19:44;;;;;;;13.87;12.40;;;;;;;18.01;99.86;98618.00;4161331;28;20641;-87
2023/05/08 07:21:47;;;;;;;14.47;12.90;;;;;;;18.07;99.53;98617.47;4154663;28;20643;-86
2023/05/08 07:23:52;;;;;;;16.93;15.17;;;;;;;18.13;100.00;98613.44;4167254;28;20642;-87
2023/05/08 07:25:56;;;;;;;15.37;13.60;;;;;;;18.18;100.00;98619.19;4163609;28;20662;-87
2023/05/08 07:27:59;;;;;;;15.50;13.90;;;;;;;18.19;100.00;98621.69;4166948;28;20629;-87
2023/05/08 07:30:04;;;;;;;14.43;12.93;;;;;;;18.18;99.67;98627.09;4159023;28;20699;-87
2023/05/08 07:32:08;;;;;;;15.37;13.67;;;;;;;18.16;98.76;98621.09;4152884;28;20631;-86
2023/05/08 07:34:13;;;;;;;14.80;13.40;;;;;;;18.15;99.14;98620.28;4172975;28;21100;-87
2023/05/08 07:36:16;;;;;;;16.93;13.43;;;;;;;18.16;99.38;98618.47;4171160;28;20639;-87
2023/05/08 07:38:19;;;;;;;14.87;13.40;;;;;;;18.12;98.97;98623.16;4175812;28;20641;-87
2023/05/08 07:40:22;;;;;;;15.27;13.13;;;;;;;18.08;98.69;98623.56;4171818;28;20634;-87
2023/05/08 07:42:25;;;;;;;14.77;13.17;;;;;;;18.04;98.30;98616.88;4170424;28;20637;-86
2023/05/08 07:44:31;;;;;;;14.27;12.87;;;;;;;18.05;99.83;98624.66;4167366;28;20658;-87
2023/05/08 07:46:45;;;;;;;16.50;14.80;;;;;;;18.10;100.00;98621.63;4174530;28;20662;-87
2023/05/08 07:48:48;;;;;;;16.10;14.40;;;;;;;18.14;100.00;98626.53;4174130;28;20622;-86
2023/05/08 07:50:53;;;;;;;16.00;14.33;;;;;;;18.17;100.00;98630.69;4172368;28;20650;-86
2023/05/08 07:52:56;;;;;;;14.70;13.20;;;;;;;18.16;100.00;98629.88;4150502;28;21238;-87
2023/05/08 07:54:59;;;;;;;15.97;14.37;;;;;;;18.16;100.00;98635.16;4176874;28;21160;-87
2023/05/08 07:57:02;;;;;;;16.40;14.80;;;;;;;18.19;100.00;98636.66;4151754;28;20653;-87
2023/05/08 07:59:05;;;;;;;16.23;14.57;;;;;;;18.20;100.00;98635.72;4173141;28;20741;-87
2023/05/08 08:01:08;;;;;;;16.63;13.23;;;;;;;18.17;99.41;98631.53;4156157;28;20678;-87
2023/05/08 08:03:12;;;;;;;16.33;14.63;;;;;;;18.15;100.00;98633.47;4158826;28;20738;-87
2023/05/08 08:05:15;;;;;;;15.07;13.57;;;;;;;18.14;99.08;98630.97;4166710;28;20771;-87
2023/05/08 08:07:20;;;;;;;16.23;14.53;;;;;;;18.15;99.78;98638.75;4171554;28;20695;-87
2023/05/08 08:09:23;;;;;;;15.97;14.37;;;;;;;18.10;99.16;98640.97;4168724;28;20653;-86
2023/05/08 08:11:27;;;;;;;16.20;14.60;;;;;;;18.07;98.66;98630.66;4188830;28;20646;-86
2023/05/08 08:13:31;;;;;;;16.60;14.80;;;;;;;18.11;99.20;98639.13;4179344;28;21379;-86
2023/05/08 08:15:34;;;;;;;15.40;13.80;;;;;;;18.10;99.72;98635.69;4174513;28;20638;-86
2023/05/08 08:17:38;;;;;;;15.83;14.20;;;;;;;18.04;99.18;98640.66;4165610;28;20696;-86
2023/05/08 08:19:41;;;;;;;15.63;14.13;;;;;;;18.03;100.00;98639.00;4155718;28;20679;-86
2023/05/08 08:21:45;;;;;;;16.93;15.30;;;;;;;18.18;99.62;98635.84;4171843;28;20720;-86
2023/05/08 08:23:49;;;;;;;17.30;15.20;;;;;;;18.08;99.09;98631.50;4169702;28;20635;-86
2023/05/08 08:25:53;;;;;;;18.40;16.50;;;;;;;18.05;99.40;98637.03;4145127;28;20639;-86
2023/05/08 08:27:57;;;;;;;17.80;16.00;;;;;;;18.05;99.83;98634.41;4140387;28;20660;-88
2023/05/08 08:30:00;;;;;;;19.30;17.30;;;;;;;18.08;100.00;98642.06;4155176;28;21581;-85
2023/05/08 08:32:19;;;;;;;20.10;18.00;;;;;;;18.11;100.00;98647.06;4168620;28;20637;-86
2023/05/08 08:34:23;;;;;;;26.37;20.23;;;;;;;18.10;100.00;98651.53;4169102;28;20631;-86
2023/05/08 08:36:26;;;;;;;18.43;16.53;;;;;;;18.11;100.00;98644.41;4152297;28;20789;-85
2023/05/08 08:38:30;;;;;;;19.60;16.80;;;;;;;18.13;100.00;98645.13;4155161;28;20631;-85
2023/05/08 08:40:39;;;;;;;18.10;16.20;;;;;;;18.15;100.00;98653.78;4174722;28;20627;-85
2023/05/08 08:42:42;;;;;;;17.30;15.60;;;;;;;18.16;100.00;98651.00;4151728;28;20640;-84
2023/05/08 08:44:45;;;;;;;17.80;16.10;;;;;;;18.18;100.00;98649.03;4175764;28;20627;-88
2023/05/08 08:46:51;;;;;;;18.33;16.53;;;;;;;18.22;100.00;98652.22;4173618;28;21374;-84
2023/05/08 08:48:56;;;;;;;17.00;15.30;;;;;;;18.26;100.00;98645.72;4172793;28;20703;-84
2023/05/08 08:51:03;;;;;;;18.00;16.13;;;;;;;18.29;100.00;98645.44;4168635;28;20646;-84
2023/05/08 08:53:10;;;;;;;17.80;15.93;;;;;;;18.30;100.00;98647.13;4173102;28;20638;-84
2023/05/08 08:55:16;;;;;;;17.57;15.77;;;;;;;18.34;100.00;98648.50;4171916;28;20721;-83
2023/05/08 08:57:21;;;;;;;17.97;15.90;;;;;;;18.35;100.00;98648.34;4171045;28;20728;-84
2023/05/08 08:59:26;;;;;;;18.17;16.47;;;;;;;18.40;100.00;98651.41;4166613;28;20654;-84
2023/05/08 09:01:30;;;;;;;31.73;20.80;;;;;;;18.46;100.00;98654.34;4156903;28;20672;-84
2023/05/08 09:03:33;;;;;;;19.03;17.23;;;;;;;18.53;100.00;98657.25;4170700;28;20723;-84
2023/05/08 09:05:37;;;;;;;19.30;17.40;;;;;;;18.57;100.00;98661.31;4156789;28;21030;-84
2023/05/08 09:07:42;;;;;;;19.10;17.13;;;;;;;18.61;100.00;98658.25;4158900;28;20762;-84
2023/05/08 09:09:47;;;;;;;17.40;15.60;;;;;;;18.63;99.20;98651.00;4173568;28;20684;-84
2023/05/08 09:11:52;;;;;;;18.17;16.37;;;;;;;18.66;99.73;98650.72;4173676;28;20638;-84
2023/05/08 09:13:57;;;;;;;19.47;17.27;;;;;;;18.73;99.34;98650.97;4174474;28;20650;-84
2023/05/08 09:16:00;;;;;;;18.47;16.60;;;;;;;18.76;99.53;98650.69;4172860;28;20641;-84
2023/05/08 09:18:04;;;;;;;18.83;16.80;;;;;;;18.75;98.80;98657.81;4176211;28;20735;-84
2023/05/08 09:20:08;;;;;;;18.10;16.30;;;;;;;18.72;99.94;98650.16;4157203;28;21224;-84
2023/05/08 09:22:12;;;;;;;18.83;16.90;;;;;;;18.70;99.45;98656.53;4169406;28;20641;-84
2023/05/08 09:24:15;;;;;;;17.90;16.00;;;;;;;18.64;99.24;98646.53;4170155;28;20644;-84
2023/05/08 09:26:27;;;;;;;19.93;16.57;;;;;;;18.64;100.00;98647.38;4173816;28;21381;-84
2023/05/08 09:28:30;;;;;;;17.80;16.10;;;;;;;18.67;99.59;98654.19;4169732;28;20665;-84
2023/05/08 09:30:48;;;;;;;17.43;15.70;;;;;;;18.67;98.83;98648.91;4170420;28;20730;-84
2023/05/08 09:33:01;;;;;;;18.40;16.60;;;;;;;18.76;99.11;98661.25;4172795;28;20632;-84